This is the latest recevied weather packets stored in our database for station/object WD5U-1. If no packets are shown the sender has not sent any weather packets the latest 10 day(s).
| Time | Temp. | Humidity | Pressure | Rain* | Wind** | Luminosity | Snow |
|---|---|---|---|---|---|---|---|
| 1777779643 | 16.67° C | 66% | 1020.9 hPa | 0 mm | - | - | - |
| 1777778205 | 17.22° C | 64% | 1021 hPa | 0 mm | - | - | - |
| 1777777699 | 17.78° C | 62% | 1020.9 hPa | 0 mm | - | - | - |
| 1777776405 | 18.33° C | 60% | 1020.7 hPa | 0 mm | - | - | - |
| 1777776264 | 18.33° C | 59% | 1020.7 hPa | 0 mm | - | - | - |
| 1777775178 | 18.33° C | 60% | 1020.6 hPa | 0 mm | - | - | - |
| 1777774105 | 18.33° C | 59% | 1020.4 hPa | 0 mm | - | - | - |
| 1777773024 | 18.89° C | 57% | 1020.5 hPa | 0 mm | - | - | - |
| 1777772657 | 19.44° C | 55% | 1020.2 hPa | 0 mm | - | - | - |
| 1777771817 | 20.56° C | 48% | 1020.3 hPa | 0 mm | - | - | - |
| 1777771584 | 20.56° C | 47% | 1020.3 hPa | 0 mm | - | - | - |
| 1777771341 | 20.56° C | 47% | 1020.2 hPa | 0 mm | - | - | - |
| 1777771220 | 21.11° C | 47% | 1020.2 hPa | 0 mm | - | - | - |
| 1777771099 | 21.11° C | 46% | 1020.2 hPa | 0 mm | - | - | - |
| 1777770856 | 21.11° C | 44% | 1020.2 hPa | 0 mm | - | - | - |
| 1777769297 | 22.78° C | 43% | 1020.1 hPa | 0 mm | - | - | - |
| 1777769198 | 22.78° C | 43% | 1020 hPa | 0 mm | - | - | - |
| 1777765706 | 23.89° C | 37% | 1020.3 hPa | 0 mm | - | - | - |
| 1777765582 | 23.89° C | 38% | 1020.2 hPa | 0 mm | - | - | - |
| 1777764044 | 24.44° C | 39% | 1020.3 hPa | 0 mm | - | - | - |
| 1777762819 | 24.44° C | 37% | 1020.3 hPa | 0 mm | - | - | - |
| 1777762717 | 24.44° C | 38% | 1020.5 hPa | 0 mm | - | - | - |
| 1777760786 | 23.89° C | 40% | 1020.8 hPa | 0 mm | - | - | - |
| 1777759701 | 23.89° C | 40% | 1020.7 hPa | 0 mm | - | - | - |
| 1777759580 | 23.33° C | 41% | 1020.7 hPa | 0 mm | - | - | - |
* Rain latest hour (hover to see other rain measurements)
** Current wind speed in m/s (hover to see current wind gust speed)